createdAt,value
2022-12-24T00:00:07.217Z,31.20
2022-12-24T00:03:13.817Z,45.40
2022-12-24T00:06:22.006Z,34.50
2022-12-24T00:09:28.143Z,35.83
2022-12-24T00:12:36.005Z,15.27
2022-12-24T00:15:42.441Z,17.40
2022-12-24T00:18:49.083Z,22.47
2022-12-24T00:21:54.996Z,24.90
2022-12-24T00:25:01.157Z,23.33
2022-12-24T00:28:08.644Z,20.73
2022-12-24T00:31:17.583Z,34.23
2022-12-24T00:34:24.681Z,26.63
2022-12-24T00:37:31.122Z,31.57
2022-12-24T00:40:37.532Z,39.03
2022-12-24T00:43:45.267Z,36.30
2022-12-24T00:46:51.427Z,33.80
2022-12-24T00:49:57.933Z,25.90
2022-12-24T00:53:04.306Z,18.97
2022-12-24T00:56:11.468Z,31.10
2022-12-24T00:59:19.386Z,23.10
2022-12-24T01:02:26.221Z,28.23
2022-12-24T01:05:32.598Z,45.87
2022-12-24T01:08:39.849Z,58.60
2022-12-24T01:11:46.460Z,62.23
2022-12-24T01:14:54.255Z,48.67
2022-12-24T01:18:00.549Z,34.93
2022-12-24T01:21:07.295Z,30.43
2022-12-24T01:24:16.410Z,28.13
2022-12-24T01:27:23.071Z,23.70
2022-12-24T01:30:31.230Z,23.17
2022-12-24T01:33:37.793Z,26.80
2022-12-24T01:36:44.235Z,35.77
2022-12-24T01:39:50.419Z,38.30
2022-12-24T01:43:10.346Z,99.00
2022-12-24T01:46:21.824Z,70.27
2022-12-24T01:49:28.344Z,30.17
2022-12-24T01:52:36.872Z,29.87
2022-12-24T01:55:46.103Z,33.30
2022-12-24T01:58:57.250Z,29.30
2022-12-24T02:02:05.351Z,22.57
2022-12-24T02:05:17.160Z,21.50
2022-12-24T02:08:23.756Z,22.27
2022-12-24T02:11:31.450Z,20.37
2022-12-24T02:14:38.602Z,20.63
2022-12-24T02:17:55.624Z,22.87
2022-12-24T02:21:36.931Z,25.07
2022-12-24T02:25:30.826Z,18.57
2022-12-24T02:28:55.954Z,22.17
2022-12-24T02:32:07.873Z,20.97
2022-12-24T02:35:18.833Z,31.77
2022-12-24T02:38:29.923Z,22.20
2022-12-24T02:41:52.772Z,24.67
2022-12-24T02:45:04.504Z,24.33
2022-12-24T02:48:13.613Z,19.03
2022-12-24T02:51:24.499Z,16.10
2022-12-24T02:54:31.295Z,16.57
2022-12-24T02:57:51.517Z,23.63
2022-12-24T03:01:16.781Z,20.37
2022-12-24T03:04:43.525Z,21.53
2022-12-24T03:07:58.419Z,20.63
2022-12-24T03:11:11.025Z,38.13
2022-12-24T03:14:18.556Z,13.03
2022-12-24T03:17:25.036Z,18.13
2022-12-24T03:20:38.878Z,20.60
2022-12-24T03:23:45.722Z,20.53
2022-12-24T03:26:54.064Z,20.87
2022-12-24T03:30:00.185Z,18.57
2022-12-24T03:33:06.581Z,24.30
2022-12-24T03:36:15.271Z,31.90
2022-12-24T03:39:21.451Z,23.23
2022-12-24T03:42:27.962Z,27.97
2022-12-24T03:45:34.736Z,31.43
2022-12-24T03:48:40.841Z,26.63
2022-12-24T03:51:48.381Z,31.33
2022-12-24T03:54:54.703Z,25.67
2022-12-24T03:58:00.722Z,30.97
2022-12-24T04:01:07.448Z,26.00
2022-12-24T04:04:13.669Z,28.83
2022-12-24T04:07:21.532Z,36.30
2022-12-24T04:10:28.060Z,28.17
2022-12-24T04:13:34.312Z,27.03
2022-12-24T04:16:40.601Z,31.23
2022-12-24T04:19:46.948Z,33.37
2022-12-24T04:22:55.811Z,40.27
2022-12-24T04:26:02.969Z,29.60
2022-12-24T04:29:09.420Z,27.50
2022-12-24T04:32:15.809Z,33.60
2022-12-24T04:35:22.147Z,43.13
2022-12-24T04:38:30.561Z,31.40
2022-12-24T04:41:37.347Z,38.40
2022-12-24T04:44:43.911Z,19.20
2022-12-24T04:47:50.207Z,23.40
2022-12-24T04:50:56.658Z,16.20
2022-12-24T04:54:04.730Z,25.47
2022-12-24T04:57:11.258Z,66.63
2022-12-24T05:00:17.822Z,46.73
2022-12-24T05:03:24.355Z,47.53
2022-12-24T05:06:32.914Z,40.30
2022-12-24T05:09:40.509Z,32.00
2022-12-24T05:12:46.537Z,32.57
2022-12-24T05:15:52.836Z,27.73
2022-12-24T05:18:59.153Z,31.40
2022-12-24T05:22:23.181Z,36.63
2022-12-24T05:25:55.147Z,28.10
2022-12-24T05:29:03.493Z,33.17
2022-12-24T05:32:09.859Z,43.50
2022-12-24T05:35:16.513Z,36.60
2022-12-24T05:38:23.283Z,31.87
2022-12-24T05:41:31.867Z,37.40
2022-12-24T05:44:38.641Z,42.33
2022-12-24T05:47:45.058Z,36.20
2022-12-24T05:50:51.086Z,52.87
2022-12-24T05:53:57.439Z,94.70
2022-12-24T05:57:04.892Z,87.40
2022-12-24T06:00:12.285Z,52.40
2022-12-24T06:03:18.646Z,133.40
2022-12-24T06:06:26.791Z,133.10
2022-12-24T06:09:33.105Z,92.27
2022-12-24T06:12:40.645Z,59.00
2022-12-24T06:15:46.951Z,74.03
2022-12-24T06:18:53.148Z,53.70
2022-12-24T06:21:59.374Z,64.80
2022-12-24T06:25:06.358Z,62.63
2022-12-24T06:28:14.104Z,24.67
2022-12-24T06:31:22.861Z,41.73
2022-12-24T06:34:29.476Z,45.67
2022-12-24T06:37:35.672Z,55.87
2022-12-24T06:40:43.253Z,38.03
2022-12-24T06:43:53.747Z,39.13
2022-12-24T06:46:59.811Z,34.33
2022-12-24T06:50:07.001Z,42.13
2022-12-24T06:53:13.308Z,29.30
2022-12-24T06:56:21.353Z,31.43
2022-12-24T06:59:29.151Z,30.00
2022-12-24T07:02:35.811Z,37.63
2022-12-24T07:05:42.655Z,32.90
2022-12-24T07:08:49.048Z,45.60
2022-12-24T07:11:55.501Z,36.67
2022-12-24T07:15:03.418Z,49.90
2022-12-24T07:18:09.729Z,59.87
2022-12-24T07:21:16.011Z,42.53
2022-12-24T07:24:22.574Z,51.73
2022-12-24T07:27:28.895Z,40.63
2022-12-24T07:30:36.372Z,29.83
2022-12-24T07:33:42.765Z,27.93
2022-12-24T07:36:49.027Z,20.70
2022-12-24T07:39:55.089Z,34.70
2022-12-24T07:43:01.421Z,50.50
2022-12-24T07:46:08.971Z,32.00
2022-12-24T07:49:15.306Z,33.93
2022-12-24T07:52:21.487Z,32.33
2022-12-24T07:55:27.650Z,36.03
2022-12-24T07:58:33.827Z,40.83
2022-12-24T08:01:41.910Z,48.67
2022-12-24T08:04:48.614Z,30.37
2022-12-24T08:07:55.064Z,37.87
2022-12-24T08:11:03.717Z,37.43
2022-12-24T08:14:10.102Z,33.63
2022-12-24T08:17:18.001Z,32.10
2022-12-24T08:20:24.084Z,22.10
2022-12-24T08:23:30.635Z,47.97
2022-12-24T08:26:36.988Z,31.90
2022-12-24T08:29:43.521Z,40.73
2022-12-24T08:32:51.404Z,28.23
2022-12-24T08:35:57.779Z,44.73
2022-12-24T08:39:04.415Z,40.03
2022-12-24T08:42:10.976Z,37.43
2022-12-24T08:45:17.609Z,24.73
2022-12-24T08:48:25.493Z,27.20
2022-12-24T08:51:31.941Z,27.57
2022-12-24T08:54:38.106Z,27.70
2022-12-24T08:57:44.310Z,24.90
2022-12-24T09:00:50.715Z,22.57
2022-12-24T09:03:58.235Z,30.90
2022-12-24T09:07:04.708Z,18.63
2022-12-24T09:10:12.406Z,28.43
2022-12-24T09:13:18.680Z,28.20
2022-12-24T09:16:25.021Z,112.23
2022-12-24T09:19:32.531Z,73.60
2022-12-24T09:22:40.754Z,49.03
2022-12-24T09:25:47.161Z,40.77
2022-12-24T09:28:54.550Z,41.63
2022-12-24T09:32:01.420Z,72.60
2022-12-24T09:35:09.623Z,84.90
2022-12-24T09:38:15.737Z,115.43
2022-12-24T09:41:39.828Z,84.37
2022-12-24T09:44:50.908Z,87.80
2022-12-24T09:48:01.351Z,74.63
2022-12-24T09:51:11.792Z,57.03
2022-12-24T09:54:23.220Z,66.20
2022-12-24T09:57:33.806Z,34.13
2022-12-24T10:00:44.528Z,39.10
2022-12-24T10:03:54.020Z,44.77
2022-12-24T10:07:08.722Z,42.87
2022-12-24T10:10:25.523Z,68.80
2022-12-24T10:13:44.135Z,41.07
2022-12-24T10:16:59.662Z,51.93
2022-12-24T10:20:25.172Z,51.47
2022-12-24T10:23:39.960Z,61.53
2022-12-24T10:26:47.852Z,48.43
2022-12-24T10:30:00.215Z,116.77
2022-12-24T10:33:16.720Z,42.67
2022-12-24T10:36:28.157Z,42.13
2022-12-24T10:39:35.723Z,28.93
2022-12-24T10:42:50.663Z,34.37
2022-12-24T10:45:59.601Z,40.53
2022-12-24T10:49:08.694Z,46.30
2022-12-24T10:52:19.049Z,35.63
2022-12-24T10:55:28.324Z,46.93
2022-12-24T10:58:35.647Z,34.43
2022-12-24T11:01:47.185Z,24.70
2022-12-24T11:04:54.330Z,26.43
2022-12-24T11:08:04.776Z,32.80
2022-12-24T11:11:14.995Z,45.00
2022-12-24T11:14:22.727Z,32.27
2022-12-24T11:17:29.521Z,30.20
2022-12-24T11:20:37.022Z,36.30
2022-12-24T11:23:51.798Z,40.23
2022-12-24T11:27:30.579Z,36.50
2022-12-24T11:30:37.090Z,37.27
2022-12-24T11:33:49.182Z,30.43
2022-12-24T11:36:58.505Z,23.30
2022-12-24T11:40:05.768Z,16.43
2022-12-24T11:43:18.017Z,14.87
2022-12-24T11:46:38.713Z,19.53
2022-12-24T11:49:45.138Z,18.73
2022-12-24T11:52:56.519Z,21.33
2022-12-24T11:56:08.107Z,16.17
2022-12-24T11:59:21.932Z,17.03
2022-12-24T12:02:33.286Z,22.43
2022-12-24T12:05:40.539Z,18.70
2022-12-24T12:08:48.956Z,18.13
2022-12-24T12:11:59.763Z,34.80
2022-12-24T12:15:14.343Z,26.87
2022-12-24T12:18:25.273Z,30.70
2022-12-24T12:21:37.021Z,24.03
2022-12-24T12:24:51.895Z,34.73
2022-12-24T12:28:01.518Z,36.70
2022-12-24T12:31:18.623Z,31.00
2022-12-24T12:34:30.919Z,30.63
2022-12-24T12:37:42.287Z,35.63
2022-12-24T12:41:10.523Z,35.90
2022-12-24T12:44:32.764Z,51.97
2022-12-24T12:48:09.100Z,51.20
2022-12-24T12:51:23.304Z,69.63
2022-12-24T12:54:42.529Z,73.37
2022-12-24T12:57:51.164Z,365.57
2022-12-24T13:01:03.265Z,93.27
2022-12-24T13:04:44.900Z,32.00
2022-12-24T13:08:20.745Z,63.77
2022-12-24T13:11:52.961Z,42.40
2022-12-24T13:15:13.122Z,32.17
2022-12-24T13:18:45.492Z,27.70
2022-12-24T13:21:57.016Z,28.40
2022-12-24T13:25:03.400Z,27.20
2022-12-24T13:28:35.819Z,23.87
2022-12-24T13:31:42.230Z,38.90
2022-12-24T13:34:50.981Z,27.50
2022-12-24T13:38:45.380Z,25.27
2022-12-24T13:41:53.329Z,42.00
2022-12-24T13:45:34.690Z,27.37
2022-12-24T13:48:41.495Z,46.63
2022-12-24T13:51:48.399Z,47.40
2022-12-24T13:55:08.122Z,38.67
2022-12-24T13:58:22.039Z,42.47
2022-12-24T14:01:37.219Z,40.97
2022-12-24T14:04:43.581Z,41.87
2022-12-24T14:07:51.494Z,39.67
2022-12-24T14:11:17.861Z,65.07
2022-12-24T14:14:30.211Z,44.63
2022-12-24T14:17:38.420Z,95.23
2022-12-24T14:20:45.388Z,68.23
2022-12-24T14:23:56.306Z,78.20
2022-12-24T14:27:18.190Z,77.93
2022-12-24T14:30:25.782Z,85.00
2022-12-24T14:33:32.359Z,131.73
2022-12-24T14:36:39.479Z,130.47
2022-12-24T14:39:57.020Z,84.93
2022-12-24T14:43:13.359Z,90.43
2022-12-24T14:46:28.980Z,86.30
2022-12-24T14:49:47.329Z,95.33
2022-12-24T14:53:09.117Z,86.67
2022-12-24T14:56:20.334Z,80.17
2022-12-24T14:59:28.982Z,62.17
2022-12-24T15:02:53.311Z,75.43
2022-12-24T15:06:02.306Z,42.23
2022-12-24T15:09:16.063Z,45.27
2022-12-24T15:12:23.458Z,36.43
2022-12-24T15:15:31.630Z,40.43
2022-12-24T15:18:47.758Z,82.87
2022-12-24T15:21:55.151Z,160.17
2022-12-24T15:25:01.424Z,168.70
2022-12-24T15:28:18.688Z,209.43
2022-12-24T15:31:27.875Z,130.10
2022-12-24T15:34:38.576Z,95.80
2022-12-24T15:37:45.077Z,95.73
2022-12-24T15:40:51.302Z,110.83
2022-12-24T15:44:04.308Z,109.47
2022-12-24T15:47:17.731Z,105.33
2022-12-24T15:50:30.789Z,109.10
2022-12-24T15:53:43.777Z,160.33
2022-12-24T15:56:50.215Z,260.90
2022-12-24T15:59:58.206Z,228.17
2022-12-24T16:03:20.441Z,264.93
2022-12-24T16:06:27.788Z,239.00
2022-12-24T16:09:44.210Z,171.70
2022-12-24T16:12:50.225Z,109.80
2022-12-24T16:16:00.892Z,117.27
2022-12-24T16:19:09.322Z,128.00
2022-12-24T16:22:36.334Z,137.70
2022-12-24T16:25:42.553Z,118.10
2022-12-24T16:28:48.821Z,99.03
2022-12-24T16:31:56.965Z,88.77
2022-12-24T16:35:08.045Z,93.13
2022-12-24T16:38:14.961Z,100.70
2022-12-24T16:41:21.183Z,106.23
2022-12-24T16:44:26.731Z,117.53
2022-12-24T16:47:41.955Z,119.03
2022-12-24T16:50:51.102Z,86.87
2022-12-24T16:53:57.403Z,83.07
2022-12-24T16:57:03.986Z,58.87
2022-12-24T17:00:18.433Z,61.00
2022-12-24T17:03:24.950Z,51.37
2022-12-24T17:06:32.640Z,29.87
2022-12-24T17:09:39.065Z,50.37
2022-12-24T17:12:45.204Z,50.87
2022-12-24T17:15:51.239Z,34.10
2022-12-24T17:18:57.699Z,37.20
2022-12-24T17:22:05.364Z,45.70
2022-12-24T17:25:14.381Z,38.53
2022-12-24T17:28:20.930Z,47.20
2022-12-24T17:31:27.300Z,43.30
2022-12-24T17:34:33.623Z,43.40
2022-12-24T17:37:41.610Z,49.73
2022-12-24T17:40:48.138Z,122.80
2022-12-24T17:43:54.443Z,184.37
2022-12-24T17:47:02.148Z,315.67
2022-12-24T17:50:09.776Z,135.30
2022-12-24T17:53:17.769Z,85.50
2022-12-24T17:56:24.082Z,36.10
2022-12-24T17:59:30.820Z,24.37
2022-12-24T18:02:37.844Z,22.73
2022-12-24T18:05:44.411Z,44.53
2022-12-24T18:08:52.530Z,57.93
2022-12-24T18:11:58.758Z,58.43
2022-12-24T18:15:05.631Z,47.30
2022-12-24T18:18:12.204Z,41.93
2022-12-24T18:21:20.709Z,63.10
2022-12-24T18:24:28.808Z,68.63
2022-12-24T18:27:36.100Z,77.03
2022-12-24T18:30:42.486Z,67.23
2022-12-24T18:33:50.566Z,70.77
2022-12-24T18:36:57.066Z,77.63
2022-12-24T18:40:05.006Z,70.33
2022-12-24T18:43:11.389Z,93.77
2022-12-24T18:46:19.736Z,135.33
2022-12-24T18:49:26.000Z,111.83
2022-12-24T18:52:32.581Z,92.53
2022-12-24T18:55:40.241Z,74.27
2022-12-24T18:58:46.613Z,77.90
2022-12-24T19:01:53.454Z,67.27
2022-12-24T19:04:59.999Z,79.67
2022-12-24T19:08:22.200Z,61.43
2022-12-24T19:11:36.293Z,82.67
2022-12-24T19:14:42.370Z,62.27
2022-12-24T19:17:48.939Z,54.53
2022-12-24T19:20:54.948Z,68.03
2022-12-24T19:24:01.704Z,41.47
2022-12-24T19:27:09.216Z,63.33
2022-12-24T19:30:15.772Z,62.60
2022-12-24T19:33:22.144Z,60.70
2022-12-24T19:36:30.521Z,46.17
2022-12-24T19:39:37.197Z,36.47
2022-12-24T19:42:45.562Z,27.67
2022-12-24T19:45:58.499Z,9.17
2022-12-24T19:49:07.916Z,24.43
2022-12-24T19:52:14.342Z,13.20
2022-12-24T19:55:20.757Z,20.57
2022-12-24T19:58:29.249Z,27.03
2022-12-24T20:01:36.579Z,23.60
2022-12-24T20:04:43.219Z,29.23
2022-12-24T20:07:49.769Z,32.33
2022-12-24T20:10:56.685Z,28.73
2022-12-24T20:14:05.909Z,31.20
2022-12-24T20:17:12.378Z,32.93
2022-12-24T20:20:19.301Z,34.30
2022-12-24T20:23:25.750Z,35.73
2022-12-24T20:26:32.238Z,46.03
2022-12-24T20:29:40.056Z,44.17
2022-12-24T20:32:46.164Z,59.77
2022-12-24T20:35:52.748Z,63.13
2022-12-24T20:38:59.162Z,82.70
2022-12-24T20:42:05.605Z,84.20
2022-12-24T20:45:13.352Z,75.60
2022-12-24T20:48:20.449Z,72.13
2022-12-24T20:51:28.840Z,105.30
2022-12-24T20:54:35.072Z,107.63
2022-12-24T20:57:41.287Z,95.73
2022-12-24T21:00:49.571Z,88.40
2022-12-24T21:03:57.618Z,96.23
2022-12-24T21:07:03.892Z,74.73
2022-12-24T21:10:11.857Z,83.73
2022-12-24T21:13:18.825Z,65.87
2022-12-24T21:16:26.770Z,62.17
2022-12-24T21:19:33.214Z,57.57
2022-12-24T21:22:39.872Z,45.10
2022-12-24T21:25:46.521Z,33.87
2022-12-24T21:28:53.398Z,29.40
2022-12-24T21:32:01.372Z,32.27
2022-12-24T21:35:08.348Z,30.83
2022-12-24T21:38:14.837Z,36.70
2022-12-24T21:41:23.697Z,45.27
2022-12-24T21:44:30.075Z,41.67
2022-12-24T21:47:38.408Z,64.07
2022-12-24T21:50:55.885Z,50.53
2022-12-24T21:54:19.823Z,47.57
2022-12-24T21:57:43.664Z,51.23
2022-12-24T22:00:50.247Z,56.40
2022-12-24T22:03:58.033Z,75.67
2022-12-24T22:07:23.389Z,69.80
2022-12-24T22:10:47.043Z,57.20
2022-12-24T22:13:54.331Z,71.13
2022-12-24T22:17:01.170Z,62.37
2022-12-24T22:20:10.750Z,71.23
2022-12-24T22:23:17.574Z,70.10
2022-12-24T22:26:24.102Z,56.20
2022-12-24T22:29:30.287Z,57.17
2022-12-24T22:32:36.971Z,79.13
2022-12-24T22:35:44.682Z,69.93
2022-12-24T22:38:51.234Z,51.60
2022-12-24T22:41:58.392Z,31.37
2022-12-24T22:45:06.235Z,49.90
2022-12-24T22:48:12.697Z,34.13
2022-12-24T22:51:22.831Z,34.83
2022-12-24T22:54:29.363Z,46.63
2022-12-24T22:57:35.972Z,39.43
2022-12-24T23:00:44.384Z,38.10
2022-12-24T23:03:50.988Z,44.37
2022-12-24T23:06:58.589Z,55.83
2022-12-24T23:10:05.340Z,62.20
2022-12-24T23:13:31.135Z,64.07
2022-12-24T23:16:38.041Z,72.00
2022-12-24T23:19:44.820Z,69.50
2022-12-24T23:22:52.329Z,73.87
2022-12-24T23:26:03.805Z,51.90
2022-12-24T23:29:10.416Z,35.30
2022-12-24T23:32:16.818Z,36.03
2022-12-24T23:35:23.202Z,40.67
2022-12-24T23:38:31.232Z,30.73
2022-12-24T23:41:37.514Z,56.07
2022-12-24T23:44:43.889Z,33.13
2022-12-24T23:47:49.847Z,45.83
2022-12-24T23:51:05.532Z,46.80
2022-12-24T23:54:13.512Z,38.73
2022-12-24T23:57:19.883Z,41.53
